Terminal Aerodrome Forecast
Issued by NWS

Home | Current Version | Previous Version | Text Only | Print | Product List | Glossary On
Versions: 1 2 3 4 5 6 7 8 9 10 11 12 13 14
000
FTUS44 KLZK 011700
TAFLIT
TAF
KLIT 011725Z 0118/0218 16006KT P6SM VCSH SCT080 BKN250
     FM020000 15005KT P6SM BKN050
     FM020800 VRB03KT 6SM BR OVC015
     FM021200 16004KT 4SM BR OVC007=

USA.gov is the U.S. government's official web portal to all federal, state and local government web resources and services.